Time;durP1;ratioP1;P1;durP2;ratioP2;P2;SDS_P1;SDS_P2;PMS_P1;PMS_P2;Temp;Humidity;BMP_temperature;BMP_pressure;BME280_temperature;BME280_humidity;BME280_pressure;Samples;Min_cycle;Max_cycle;Signal;HPM_P1;HPM_P2
2022/04/01 00:00:37;;;;;;;62.20;27.20;;;11.20;99.90;;;;;;4995027;28;20181;-68
2022/04/01 00:03:04;;;;;;;60.87;27.20;;;11.10;99.90;;;;;;5012899;28;20278;-68
2022/04/01 00:05:29;;;;;;;65.77;28.23;;;11.10;99.90;;;;;;5012911;28;20316;-68
2022/04/01 00:07:55;;;;;;;75.97;27.93;;;11.10;99.90;;;;;;5012884;28;20595;-68
2022/04/01 00:10:21;;;;;;;113.83;31.93;;;11.10;99.90;;;;;;5012958;28;20191;-68
2022/04/01 00:12:47;;;;;;;79.73;28.63;;;11.10;99.90;;;;;;4994692;28;20194;-68
2022/04/01 00:15:13;;;;;;;74.07;27.93;;;11.10;99.90;;;;;;5012229;28;20291;-69
2022/04/01 00:17:40;;;;;;;71.30;29.73;;;11.20;99.90;;;;;;4978402;28;20195;-68
2022/04/01 00:20:06;;;;;;;76.13;28.23;;;11.20;99.90;;;;;;5012122;28;20629;-67
2022/04/01 00:22:32;;;;;;;80.10;30.37;;;11.20;99.90;;;;;;5012587;28;20632;-68
2022/04/01 00:24:58;;;;;;;72.77;27.73;;;11.20;99.90;;;;;;5012376;28;20190;-68
2022/04/01 00:27:24;;;;;;;65.00;27.00;;;11.10;99.90;;;;;;5025695;28;20234;-68
2022/04/01 00:29:50;;;;;;;85.87;29.17;;;11.10;99.90;;;;;;5031983;28;20690;-68
2022/04/01 00:32:16;;;;;;;84.27;28.60;;;11.10;99.90;;;;;;5032400;28;20181;-68
2022/04/01 00:34:42;;;;;;;83.90;30.70;;;11.10;99.90;;;;;;5029866;28;20638;-68
2022/04/01 00:37:08;;;;;;;69.77;27.37;;;11.10;99.90;;;;;;5012258;28;20239;-68
2022/04/01 00:39:34;;;;;;;73.27;27.23;;;11.10;99.90;;;;;;5011928;28;20639;-69
2022/04/01 00:42:02;;;;;;;78.07;27.17;;;11.20;99.90;;;;;;5012064;28;20191;-68
2022/04/01 00:44:34;;;;;;;65.57;28.53;;;11.20;99.90;;;;;;5011855;28;20185;-67
2022/04/01 00:47:03;;;;;;;71.30;29.13;;;11.20;99.90;;;;;;4994013;28;20195;-68
2022/04/01 00:49:31;;;;;;;77.63;27.13;;;11.30;99.90;;;;;;5012048;28;20228;-68
2022/04/01 00:52:00;;;;;;;70.10;28.40;;;11.20;99.90;;;;;;5011677;28;20184;-68
2022/04/01 00:54:25;;;;;;;69.67;28.67;;;11.10;99.90;;;;;;5012255;28;20172;-68
2022/04/01 00:56:51;;;;;;;78.60;28.43;;;11.00;99.90;;;;;;5011985;28;20610;-68
2022/04/01 00:59:18;;;;;;;67.97;29.57;;;11.00;99.90;;;;;;4994362;28;20272;-68
2022/04/01 01:01:44;;;;;;;78.80;27.77;;;11.00;99.90;;;;;;5011942;28;20192;-68
2022/04/01 01:04:15;;;;;;;75.80;29.03;;;10.90;99.90;;;;;;4994687;28;20192;-68
2022/04/01 01:06:43;;;;;;;67.23;28.17;;;10.90;99.90;;;;;;5011659;28;20183;-68
2022/04/01 01:09:10;;;;;;;81.37;29.07;;;10.90;99.90;;;;;;5011412;28;20199;-67
2022/04/01 01:11:36;;;;;;;73.97;28.20;;;10.70;99.90;;;;;;5011697;28;20517;-68
2022/04/01 01:14:09;;;;;;;75.13;28.93;;;10.60;99.90;;;;;;5011662;28;20190;-68
2022/04/01 01:16:40;;;;;;;93.60;30.60;;;10.60;99.90;;;;;;5011937;28;20629;-68
2022/04/01 01:19:17;;;;;;;275.47;55.37;;;10.50;99.90;;;;;;5011876;28;20203;-68
2022/04/01 01:21:44;;;;;;;54.17;24.53;;;10.50;99.90;;;;;;5011646;28;20167;-68
2022/04/01 01:24:13;;;;;;;253.70;49.33;;;10.40;99.90;;;;;;5012485;28;20187;-68
2022/04/01 01:26:40;;;;;;;106.60;30.77;;;10.40;99.90;;;;;;5022666;28;20205;-67
2022/04/01 01:29:09;;;;;;;301.00;46.03;;;10.40;99.90;;;;;;5035424;28;20287;-68
2022/04/01 01:31:34;;;;;;;70.90;29.37;;;10.40;99.90;;;;;;5035929;28;20201;-68
2022/04/01 01:34:01;;;;;;;74.80;31.07;;;10.40;99.90;;;;;;5017778;28;20213;-68
2022/04/01 01:36:29;;;;;;;85.30;31.53;;;10.40;99.90;;;;;;5019017;28;20207;-68
2022/04/01 01:38:55;;;;;;;79.23;30.93;;;10.40;99.90;;;;;;5015316;28;20186;-68
2022/04/01 01:41:22;;;;;;;96.07;31.63;;;10.40;99.90;;;;;;4997947;28;20226;-68
2022/04/01 01:43:48;;;;;;;89.03;31.67;;;10.40;99.90;;;;;;5015196;28;20183;-68
2022/04/01 01:46:14;;;;;;;86.43;30.57;;;10.40;99.90;;;;;;5015377;28;20589;-68
2022/04/01 01:48:40;;;;;;;87.77;33.83;;;10.40;99.90;;;;;;5014992;28;20259;-68
2022/04/01 01:56:36;;;;;;;80.83;31.20;;;10.20;99.90;;;;;;5015361;28;20264;-68
2022/04/01 01:59:02;;;;;;;83.70;31.47;;;10.20;99.90;;;;;;5015069;28;20184;-68
2022/04/01 02:01:28;;;;;;;64.37;27.13;;;10.20;99.90;;;;;;5015228;28;20643;-68
2022/04/01 02:03:54;;;;;;;99.90;35.13;;;10.20;99.90;;;;;;4997495;28;20179;-69
2022/04/01 02:06:22;;;;;;;96.87;32.53;;;10.20;99.90;;;;;;4997856;28;20187;-69
2022/04/01 02:08:50;;;;;;;69.60;28.70;;;10.10;99.90;;;;;;5014765;28;20264;-66
2022/04/01 02:11:19;;;;;;;78.50;30.93;;;10.10;99.90;;;;;;5014830;28;20699;-67
2022/04/01 02:13:45;;;;;;;68.17;31.27;;;10.00;99.90;;;;;;5015042;28;20193;-67
2022/04/01 02:16:12;;;;;;;74.20;31.07;;;9.90;99.90;;;;;;5014990;28;20246;-67
2022/04/01 02:18:38;;;;;;;70.93;29.93;;;9.80;99.90;;;;;;5014757;28;20184;-67
2022/04/01 02:21:10;;;;;;;83.70;31.47;;;9.70;99.90;;;;;;5014848;28;20186;-67
2022/04/01 02:23:40;;;;;;;71.93;31.47;;;9.70;99.90;;;;;;5014584;28;20258;-68
2022/04/01 02:26:07;;;;;;;67.13;31.67;;;9.60;99.90;;;;;;5017403;28;20197;-68
2022/04/01 02:28:37;;;;;;;62.17;29.30;;;9.50;99.90;;;;;;5034844;28;20200;-68
2022/04/01 02:31:06;;;;;;;72.53;30.80;;;9.50;99.90;;;;;;5034148;28;20186;-67
2022/04/01 02:33:33;;;;;;;73.20;31.10;;;9.50;99.90;;;;;;5017229;28;20280;-68
2022/04/01 02:35:59;;;;;;;69.10;29.40;;;9.40;99.90;;;;;;5020336;28;20216;-67
2022/04/01 02:38:26;;;;;;;83.30;28.43;;;9.50;99.90;;;;;;5014014;28;20190;-70
2022/04/01 02:40:56;;;;;;;87.17;29.57;;;9.50;99.90;;;;;;5014138;28;20186;-68
2022/04/01 02:43:23;;;;;;;94.87;30.77;;;9.50;99.90;;;;;;5014484;28;20188;-67
2022/04/01 02:45:49;;;;;;;74.07;28.37;;;9.60;99.90;;;;;;5014020;28;20196;-68
2022/04/01 02:48:16;;;;;;;69.57;27.07;;;9.70;99.90;;;;;;5014401;28;20530;-68
2022/04/01 02:50:43;;;;;;;66.97;27.70;;;9.80;99.90;;;;;;5013799;28;20752;-67
2022/04/01 02:53:10;;;;;;;98.63;29.30;;;9.90;99.90;;;;;;5014044;28;20650;-67
2022/04/01 02:55:35;;;;;;;74.00;29.13;;;9.90;99.90;;;;;;4980350;28;20700;-67
2022/04/01 02:58:01;;;;;;;65.90;28.60;;;10.00;99.90;;;;;;5013632;28;20278;-68
2022/04/01 03:00:27;;;;;;;77.53;28.60;;;10.00;99.90;;;;;;5014464;28;20186;-68
2022/04/01 03:02:53;;;;;;;75.40;29.20;;;10.00;99.90;;;;;;4996223;28;20193;-67
2022/04/01 03:05:19;;;;;;;60.93;26.03;;;10.00;99.90;;;;;;5014061;28;20201;-68
2022/04/01 03:07:45;;;;;;;106.93;30.23;;;10.00;99.90;;;;;;5013886;28;20187;-67
2022/04/01 03:10:11;;;;;;;66.00;27.30;;;9.90;99.90;;;;;;4996091;28;20185;-67
2022/04/01 03:12:38;;;;;;;75.87;27.70;;;9.90;99.90;;;;;;5013671;28;20647;-67
2022/04/01 03:15:04;;;;;;;100.53;29.63;;;9.90;99.90;;;;;;5013434;28;20234;-67
2022/04/01 03:17:33;;;;;;;77.90;30.50;;;9.80;99.90;;;;;;5013730;28;20305;-68
2022/04/01 03:20:01;;;;;;;79.27;30.40;;;9.70;99.90;;;;;;5013159;28;20226;-67
2022/04/01 03:22:26;;;;;;;87.70;31.10;;;9.60;99.90;;;;;;5013618;28;20262;-67
2022/04/01 03:24:52;;;;;;;84.10;29.57;;;9.50;99.90;;;;;;4995540;28;20611;-67
2022/04/01 03:27:18;;;;;;;77.33;29.30;;;9.40;99.90;;;;;;5025787;28;20242;-68
2022/04/01 03:29:44;;;;;;;66.50;29.20;;;9.40;99.90;;;;;;5015197;28;20193;-68
2022/04/01 03:32:10;;;;;;;79.37;31.17;;;9.40;99.90;;;;;;5032781;28;20553;-68
2022/04/01 03:34:37;;;;;;;75.70;30.03;;;9.30;99.90;;;;;;5031712;28;20218;-68
2022/04/01 03:37:05;;;;;;;85.10;31.53;;;9.30;99.90;;;;;;5012369;28;20679;-68
2022/04/01 03:39:32;;;;;;;74.40;30.13;;;9.30;99.90;;;;;;5012856;28;20193;-67
2022/04/01 03:42:03;;;;;;;81.07;31.97;;;9.20;99.90;;;;;;5012747;28;20176;-68
2022/04/01 03:44:29;;;;;;;82.60;32.43;;;9.20;99.90;;;;;;5013119;28;20629;-68
2022/04/01 03:47:02;;;;;;;94.30;34.57;;;9.10;99.90;;;;;;4994826;28;20214;-68
2022/04/01 03:49:31;;;;;;;88.83;33.43;;;9.00;99.90;;;;;;5012521;28;20228;-69
2022/04/01 03:51:59;;;;;;;100.37;35.90;;;9.00;99.90;;;;;;5012374;28;20595;-68
2022/04/01 03:54:25;;;;;;;81.30;33.27;;;8.90;99.90;;;;;;5012942;28;20226;-68
2022/04/01 03:57:01;;;;;;;88.70;33.43;;;8.90;99.90;;;;;;5011996;28;20695;-68
2022/04/01 03:59:40;;;;;;;98.60;34.87;;;8.80;99.90;;;;;;4995400;28;20672;-68
2022/04/01 04:02:14;;;;;;;85.63;31.13;;;8.80;99.90;;;;;;5012412;28;20221;-68
2022/04/01 04:04:40;;;;;;;74.73;31.37;;;8.80;99.90;;;;;;4995103;28;20203;-69
2022/04/01 04:07:07;;;;;;;81.73;32.27;;;8.70;99.90;;;;;;5012029;28;20613;-69
2022/04/01 04:09:39;;;;;;;134.77;39.33;;;8.70;99.90;;;;;;5012310;28;20212;-68
2022/04/01 04:12:07;;;;;;;94.67;34.73;;;8.70;99.90;;;;;;5011889;28;20181;-67
2022/04/01 04:14:33;;;;;;;93.03;33.33;;;8.70;99.90;;;;;;5012149;28;20620;-68
2022/04/01 04:17:08;;;;;;;106.07;35.43;;;8.80;99.90;;;;;;5012139;28;20271;-68
2022/04/01 04:19:49;;;;;;;100.70;37.17;;;8.90;99.90;;;;;;5012339;28;20701;-68
2022/04/01 04:22:20;;;;;;;127.07;37.43;;;9.00;99.90;;;;;;5006955;28;20182;-68
2022/04/01 04:25:04;;;;;;;97.30;33.37;;;9.10;99.90;;;;;;5043908;28;20182;-68
2022/04/01 04:27:34;;;;;;;87.70;34.07;;;9.10;99.90;;;;;;5036684;28;20210;-69
2022/04/01 04:30:08;;;;;;;84.07;33.90;;;9.10;99.90;;;;;;5051163;28;20187;-68
2022/04/01 04:32:42;;;;;;;96.03;32.57;;;9.10;99.90;;;;;;5051489;28;20187;-68
2022/04/01 04:35:10;;;;;;;84.90;33.27;;;9.20;99.90;;;;;;5045343;28;20173;-68
2022/04/01 04:37:42;;;;;;;94.40;33.63;;;9.20;99.90;;;;;;5031209;28;20290;-69
2022/04/01 04:40:12;;;;;;;99.67;34.70;;;9.20;99.90;;;;;;5031048;28;20170;-69
2022/04/01 04:42:44;;;;;;;124.60;37.70;;;9.30;99.90;;;;;;5031161;28;20188;-62
2022/04/01 04:45:17;;;;;;;114.80;36.40;;;9.40;99.90;;;;;;5030874;28;20183;-63
2022/04/01 04:47:43;;;;;;;100.67;39.87;;;9.50;99.90;;;;;;5031143;28;20231;-61
2022/04/01 04:50:11;;;;;;;108.37;36.17;;;9.50;99.90;;;;;;5030297;28;20235;-61
2022/04/01 04:52:40;;;;;;;110.03;34.77;;;9.60;99.90;;;;;;5031221;28;20193;-71
2022/04/01 04:55:13;;;;;;;92.87;34.53;;;9.60;99.90;;;;;;5029532;28;20192;-75
2022/04/01 04:57:39;;;;;;;88.17;35.23;;;9.70;99.90;;;;;;5030438;28;20325;-70
2022/04/01 05:00:05;;;;;;;98.90;37.93;;;9.80;99.90;;;;;;5030063;28;20172;-72
2022/04/01 05:03:07;;;;;;;85.17;34.83;;;9.90;99.90;;;;;;5031392;28;20276;-75
2022/04/01 05:05:43;;;;;;;129.80;37.90;;;10.10;99.90;;;;;;5031205;28;20165;-72
2022/04/01 05:08:28;;;;;;;75.40;27.53;;;10.40;99.90;;;;;;5031999;28;20178;-72
2022/04/01 05:11:08;;;;;;;75.03;26.67;;;10.50;99.90;;;;;;5031573;28;20250;-74
2022/04/01 05:14:11;;;;;;;59.63;25.97;;;10.70;99.90;;;;;;5014553;28;20639;-72
2022/04/01 05:16:57;;;;;;;86.17;31.20;;;10.90;99.90;;;;;;5031381;28;20207;-74
2022/04/01 05:19:27;;;;;;;97.13;34.37;;;11.10;99.90;;;;;;5031301;28;20219;-72
2022/04/01 05:22:07;;;;;;;80.20;31.40;;;11.30;99.90;;;;;;4997433;28;20276;-73
2022/04/01 05:24:37;;;;;;;92.23;29.53;;;11.30;99.90;;;;;;5031454;28;20180;-72
2022/04/01 05:27:05;;;;;;;85.10;26.10;;;11.50;99.90;;;;;;5020469;28;20496;-75
2022/04/01 05:29:40;;;;;;;114.37;38.30;;;11.60;99.90;;;;;;5011547;28;20717;-75
2022/04/01 05:32:10;;;;;;;97.23;33.47;;;11.70;99.90;;;;;;5011473;28;20173;-74
2022/04/01 05:34:49;;;;;;;80.47;28.37;;;12.00;99.90;;;;;;4995235;28;20281;-73
2022/04/01 05:37:16;;;;;;;107.00;31.33;;;12.20;99.90;;;;;;5030801;28;20229;-72
2022/04/01 05:39:46;;;;;;;84.73;27.73;;;12.30;99.90;;;;;;5031358;28;20256;-61
2022/04/01 05:42:13;;;;;;;83.67;29.07;;;12.60;99.90;;;;;;5030777;28;20170;-67
2022/04/01 05:44:42;;;;;;;119.20;49.73;;;12.70;99.90;;;;;;5030856;28;20179;-62
2022/04/01 05:47:10;;;;;;;120.27;53.30;;;12.70;99.90;;;;;;5030880;28;20182;-65
2022/04/01 05:49:46;;;;;;;119.67;52.37;;;12.60;99.90;;;;;;5030304;28;20257;-69
2022/04/01 05:52:13;;;;;;;117.83;47.17;;;12.50;99.90;;;;;;5030594;28;20186;-66
2022/04/01 05:54:41;;;;;;;109.40;46.50;;;12.60;99.90;;;;;;5030902;28;20178;-69
2022/04/01 05:57:13;;;;;;;119.47;46.03;;;12.70;99.90;;;;;;5029452;28;20218;-69
2022/04/01 05:59:40;;;;;;;110.90;42.60;;;12.70;99.90;;;;;;5012949;28;20178;-68
2022/04/01 06:02:06;;;;;;;78.80;38.23;;;12.80;99.90;;;;;;5003999;28;20206;-68
2022/04/01 06:05:00;;;;;;;80.03;34.83;;;13.00;99.90;;;;;;5028336;28;20175;-68
2022/04/01 06:07:31;;;;;;;126.23;41.43;;;13.20;99.90;;;;;;5030025;28;20187;-68
2022/04/01 06:10:09;;;;;;;116.13;42.87;;;13.40;99.90;;;;;;5006470;28;20253;-68
2022/04/01 06:12:53;;;;;;;103.53;44.30;;;13.70;99.90;;;;;;5033474;28;20210;-68
2022/04/01 06:15:30;;;;;;;102.00;43.00;;;13.80;99.90;;;;;;5028956;28;20187;-68
2022/04/01 06:18:18;;;;;;;97.23;40.30;;;13.80;99.90;;;;;;5033518;28;20224;-68
2022/04/01 06:20:47;;;;;;;91.03;39.00;;;13.90;99.90;;;;;;5014404;28;20196;-68
2022/04/01 06:23:23;;;;;;;100.20;41.00;;;13.80;99.90;;;;;;5020347;28;20190;-69
2022/04/01 06:26:00;;;;;;;99.27;40.30;;;13.80;99.90;;;;;;5005299;28;20194;-69
2022/04/01 06:28:34;;;;;;;115.27;40.77;;;13.80;99.90;;;;;;5022035;28;20321;-70
2022/04/01 06:31:05;;;;;;;108.37;43.00;;;13.80;99.90;;;;;;5019049;28;20183;-69
2022/04/01 06:33:37;;;;;;;107.47;40.57;;;13.80;99.90;;;;;;5032714;28;20191;-68
2022/04/01 06:36:09;;;;;;;107.30;42.63;;;13.80;99.90;;;;;;5028382;28;20206;-68
2022/04/01 06:38:53;;;;;;;124.00;44.70;;;13.90;99.90;;;;;;5033274;28;20222;-69
2022/04/01 06:41:23;;;;;;;68.77;29.30;;;14.00;99.90;;;;;;5018853;28;20214;-68
2022/04/01 06:43:49;;;;;;;26.77;10.90;;;14.10;99.90;;;;;;5033177;28;20254;-68
2022/04/01 06:46:15;;;;;;;21.80;7.83;;;14.50;99.90;;;;;;5018809;28;20199;-69
2022/04/01 06:48:41;;;;;;;27.77;9.57;;;14.90;99.90;;;;;;5032998;28;20197;-69
2022/04/01 06:51:08;;;;;;;28.73;9.50;;;15.30;99.90;;;;;;5017507;28;20332;-67
2022/04/01 06:53:37;;;;;;;32.97;9.30;;;15.60;99.90;;;;;;5033062;28;20203;-67
2022/04/01 06:56:03;;;;;;;28.40;9.00;;;15.90;99.90;;;;;;5018562;28;20224;-70
2022/04/01 06:58:30;;;;;;;33.07;9.00;;;16.00;99.90;;;;;;5032539;28;20241;-68
2022/04/01 07:00:56;;;;;;;27.40;9.50;;;16.20;99.90;;;;;;5019189;28;20309;-69
2022/04/01 07:03:23;;;;;;;29.40;9.03;;;16.30;99.90;;;;;;5032858;28;20203;-67
2022/04/01 07:05:51;;;;;;;34.67;10.83;;;16.50;99.90;;;;;;5018338;28;20205;-69
2022/04/01 07:08:17;;;;;;;39.23;11.90;;;16.50;99.90;;;;;;5032597;28;20273;-69
2022/04/01 07:10:45;;;;;;;54.20;22.97;;;16.60;99.90;;;;;;5029536;28;20255;-69
2022/04/01 07:13:10;;;;;;;94.23;37.87;;;16.80;99.90;;;;;;5032477;28;20507;-72
2022/04/01 07:15:36;;;;;;;69.50;35.07;;;16.80;99.40;;;;;;5018833;28;20227;-71
2022/04/01 07:18:02;;;;;;;77.60;34.23;;;16.90;99.00;;;;;;5028503;28;20658;-71
2022/04/01 07:20:29;;;;;;;78.70;32.20;;;16.90;99.00;;;;;;5012939;28;20640;-71
2022/04/01 07:22:55;;;;;;;80.30;32.33;;;16.90;98.90;;;;;;5029748;28;20191;-70
2022/04/01 07:25:22;;;;;;;86.03;33.63;;;16.90;98.80;;;;;;5003372;28;20490;-73
2022/04/01 07:27:49;;;;;;;77.07;29.57;;;16.90;98.70;;;;;;5008716;28;20302;-69
2022/04/01 07:30:15;;;;;;;73.17;30.80;;;16.90;98.90;;;;;;5021260;28;20620;-70
2022/04/01 07:32:41;;;;;;;61.77;28.37;;;17.10;98.80;;;;;;5011694;28;20199;-69
2022/04/01 07:35:14;;;;;;;69.63;29.67;;;17.20;98.30;;;;;;5013328;28;20214;-71
2022/04/01 07:37:45;;;;;;;83.80;30.40;;;17.00;98.40;;;;;;5012528;28;20211;-69
2022/04/01 07:40:11;;;;;;;62.07;28.70;;;17.10;98.50;;;;;;4976399;28;20648;-70
2022/04/01 07:42:38;;;;;;;76.77;30.17;;;17.40;98.30;;;;;;5010989;28;20249;-71
2022/04/01 07:45:04;;;;;;;57.47;28.20;;;17.80;97.70;;;;;;5012461;28;20279;-69
2022/04/01 07:47:33;;;;;;;18.83;7.60;;;18.20;96.90;;;;;;4994829;28;20584;-71
2022/04/01 07:50:01;;;;;;;18.87;6.57;;;18.60;95.90;;;;;;5011444;28;20318;-67
2022/04/01 07:52:29;;;;;;;16.00;5.70;;;19.00;95.20;;;;;;5012123;28;20615;-69
2022/04/01 07:54:55;;;;;;;21.13;5.50;;;19.40;94.20;;;;;;5012111;28;20236;-70
2022/04/01 07:57:21;;;;;;;5.32;2.65;;;19.70;93.10;;;;;;5011698;28;20281;-69
2022/04/01 07:59:47;;;;;;;9.10;2.70;;;19.70;92.40;;;;;;5025482;28;20616;-71
2022/04/01 08:02:14;;;;;;;7.40;2.35;;;19.80;91.80;;;;;;5031702;28;20270;-70
2022/04/01 08:04:40;;;;;;;16.90;2.60;;;19.70;91.40;;;;;;5031947;28;20186;-69
2022/04/01 08:07:07;;;;;;;9.13;2.30;;;19.40;91.30;;;;;;5014321;28;20186;-71
2022/04/01 08:09:34;;;;;;;14.15;2.70;;;19.40;91.50;;;;;;5031570;28;20377;-71
2022/04/01 08:12:01;;;;;;;5.63;2.00;;;19.40;91.20;;;;;;5031459;28;20265;-70
2022/04/01 08:14:27;;;;;;;9.80;1.50;;;19.10;91.00;;;;;;5031284;28;20210;-72
2022/04/01 08:16:54;;;;;;;10.68;2.28;;;18.90;91.40;;;;;;5013560;28;20639;-73
2022/04/01 08:19:23;;;;;;;7.13;2.20;;;18.80;91.80;;;;;;5031495;28;20183;-73
2022/04/01 08:21:49;;;;;;;5.37;1.80;;;18.80;91.60;;;;;;5031365;28;20571;-74
2022/04/01 08:24:16;;;;;;;5.87;2.03;;;18.50;91.60;;;;;;5031384;28;20194;-75
2022/04/01 08:26:43;;;;;;;13.93;2.00;;;18.80;91.80;;;;;;5023507;28;20195;-73
2022/04/01 08:29:08;;;;;;;6.33;1.57;;;19.00;91.40;;;;;;5011373;28;20183;-73
2022/04/01 08:31:34;;;;;;;9.50;2.33;;;19.20;90.90;;;;;;5010959;28;20184;-74
2022/04/01 08:34:00;;;;;;;18.25;3.17;;;19.30;90.50;;;;;;5011431;28;20183;-72
2022/04/01 08:36:26;;;;;;;8.50;2.10;;;19.20;90.50;;;;;;5009795;28;20217;-73
2022/04/01 08:38:52;;;;;;;9.23;2.00;;;19.20;90.30;;;;;;5031354;28;20252;-75
2022/04/01 08:41:20;;;;;;;5.63;2.33;;;19.10;90.40;;;;;;5030938;28;20214;-73
2022/04/01 08:43:49;;;;;;;5.50;2.72;;;19.10;90.60;;;;;;5030886;28;20187;-72
2022/04/01 08:46:15;;;;;;;6.50;2.30;;;19.30;90.50;;;;;;5030335;28;20237;-72
2022/04/01 08:48:43;;;;;;;5.77;2.07;;;19.30;90.30;;;;;;5030452;28;20179;-72
2022/04/01 08:51:10;;;;;;;9.20;2.78;;;19.30;90.20;;;;;;5030451;28;20235;-73
2022/04/01 08:53:38;;;;;;;15.35;3.42;;;19.40;89.80;;;;;;5013183;28;20191;-71
2022/04/01 08:56:04;;;;;;;12.65;3.30;;;19.60;89.00;;;;;;5030138;28;20309;-73
2022/04/01 08:58:30;;;;;;;9.15;2.25;;;19.60;89.00;;;;;;5030585;28;20179;-75
2022/04/01 09:00:58;;;;;;;7.82;2.47;;;19.70;88.70;;;;;;5013350;28;20179;-69
2022/04/01 09:03:24;;;;;;;9.23;2.38;;;19.70;88.70;;;;;;5029963;28;20214;-73
2022/04/01 09:05:59;;;;;;;18.80;2.72;;;19.60;88.20;;;;;;5030158;28;20607;-74
2022/04/01 09:08:24;;;;;;;12.25;3.20;;;20.00;88.10;;;;;;5030186;28;20175;-73
2022/04/01 09:10:53;;;;;;;8.55;3.20;;;20.50;85.80;;;;;;5030128;28;20278;-72
2022/04/01 09:13:21;;;;;;;11.30;4.20;;;21.00;84.50;;;;;;5029942;28;20209;-73
2022/04/01 09:15:47;;;;;;;8.30;2.80;;;21.30;83.50;;;;;;5029607;28;20667;-71
2022/04/01 09:18:13;;;;;;;10.85;3.22;;;21.00;83.00;;;;;;5012534;28;20187;-74
2022/04/01 09:20:49;;;;;;;7.20;2.25;;;20.80;84.10;;;;;;5012623;28;20383;-72
2022/04/01 09:23:23;;;;;;;12.85;2.50;;;21.10;82.80;;;;;;5012573;28;20242;-73
2022/04/01 09:25:50;;;;;;;28.67;3.67;;;21.10;82.80;;;;;;5012477;28;20194;-73
2022/04/01 09:28:37;;;;;;;8.93;1.80;;;21.00;82.00;;;;;;5010495;28;20182;-74
2022/04/01 09:31:12;;;;;;;10.60;2.67;;;21.00;81.30;;;;;;5010135;28;20207;-68
2022/04/01 09:33:45;;;;;;;14.73;2.50;;;21.10;81.20;;;;;;5010938;28;20179;-71
2022/04/01 09:36:14;;;;;;;10.65;2.33;;;21.30;80.80;;;;;;5024055;28;20207;-74
2022/04/01 09:38:50;;;;;;;6.55;2.22;;;21.40;80.10;;;;;;5013068;28;20266;-73
2022/04/01 09:41:19;;;;;;;4.68;1.85;;;21.30;79.70;;;;;;5030623;28;20166;-73
2022/04/01 09:43:45;;;;;;;6.60;2.17;;;21.10;79.50;;;;;;5012303;28;20270;-72
2022/04/01 09:46:25;;;;;;;34.53;6.65;;;21.30;79.60;;;;;;5032373;28;20252;-75
2022/04/01 09:48:58;;;;;;;9.07;2.15;;;21.70;78.30;;;;;;5027113;28;20187;-74
2022/04/01 09:51:30;;;;;;;22.77;3.20;;;21.90;77.30;;;;;;5018664;28;20183;-72
2022/04/01 09:53:58;;;;;;;8.02;1.90;;;22.20;75.90;;;;;;4996859;28;20241;-73
2022/04/01 09:56:36;;;;;;;14.88;2.13;;;21.90;75.40;;;;;;5014054;28;20204;-72
2022/04/01 09:59:05;;;;;;;21.67;3.05;;;21.90;74.90;;;;;;5017240;28;20206;-68
2022/04/01 10:01:33;;;;;;;9.15;3.00;;;21.90;75.10;;;;;;5022731;28;20198;-69
2022/04/01 10:03:59;;;;;;;6.80;2.13;;;22.10;74.20;;;;;;5005062;28;20207;-64
2022/04/01 10:06:24;;;;;;;7.40;2.08;;;21.70;74.10;;;;;;5004825;28;20187;-66
2022/04/01 10:08:51;;;;;;;6.07;1.95;;;21.60;74.20;;;;;;5022563;28;20542;-63
2022/04/01 10:11:20;;;;;;;11.93;2.65;;;21.70;73.80;;;;;;5004793;28;20184;-65
2022/04/01 10:13:46;;;;;;;35.70;4.18;;;22.00;73.30;;;;;;5022307;28;20464;-64
2022/04/01 10:16:13;;;;;;;10.05;2.00;;;22.30;71.30;;;;;;5021939;28;20352;-64
2022/04/01 10:18:42;;;;;;;13.98;2.33;;;22.40;70.10;;;;;;5022389;28;20183;-64
2022/04/01 10:21:09;;;;;;;25.58;3.67;;;22.00;70.80;;;;;;5026247;28;20233;-65
2022/04/01 10:23:40;;;;;;;9.25;1.75;;;22.60;70.20;;;;;;5004607;28;20277;-64
2022/04/01 10:26:13;;;;;;;9.80;2.65;;;22.30;68.90;;;;;;5021491;28;20206;-61
2022/04/01 10:28:39;;;;;;;16.30;3.15;;;22.40;69.10;;;;;;5004944;28;20230;-60
2022/04/01 10:31:13;;;;;;;9.95;2.00;;;22.60;70.40;;;;;;5021919;28;20213;-61
2022/04/01 10:33:39;;;;;;;7.40;2.00;;;22.20;69.80;;;;;;5020294;28;20661;-63
2022/04/01 10:36:28;;;;;;;11.95;2.70;;;21.90;71.10;;;;;;5022744;28;20215;-70
2022/04/01 10:39:06;;;;;;;15.18;2.80;;;21.80;70.50;;;;;;5017727;28;20293;-70
2022/04/01 10:41:32;;;;;;;12.02;2.63;;;21.60;71.10;;;;;;5018683;28;20218;-64
2022/04/01 10:44:00;;;;;;;15.60;2.70;;;21.70;70.80;;;;;;5021913;28;20195;-70
2022/04/01 10:46:27;;;;;;;12.75;2.65;;;21.80;70.70;;;;;;5020838;28;20251;-63
2022/04/01 10:52:04;;;;;;;7.80;2.13;;;22.10;70.50;;;;;;5021892;28;20197;-65
2022/04/01 10:54:30;;;;;;;15.48;2.33;;;22.00;70.00;;;;;;5021287;28;20565;-62
2022/04/01 10:57:01;;;;;;;11.05;2.08;;;22.20;69.80;;;;;;5020149;28;20219;-60
2022/04/01 10:59:47;;;;;;;21.10;2.67;;;22.30;69.10;;;;;;5021036;28;20227;-62
2022/04/01 11:02:20;;;;;;;13.05;2.13;;;22.20;68.50;;;;;;5020630;28;20492;-62
2022/04/01 11:04:47;;;;;;;12.85;2.30;;;22.10;68.60;;;;;;5002903;28;20514;-65
2022/04/01 11:07:30;;;;;;;9.38;1.60;;;22.20;68.70;;;;;;5021382;28;20225;-63
2022/04/01 11:10:00;;;;;;;5.68;1.70;;;22.10;68.40;;;;;;5020625;28;20182;-68
2022/04/01 11:12:33;;;;;;;16.55;2.85;;;22.30;68.10;;;;;;5021615;28;20274;-73
2022/04/01 11:14:59;;;;;;;13.35;2.55;;;22.70;67.70;;;;;;5022160;28;20190;-68
2022/04/01 11:17:52;;;;;;;13.05;2.20;;;22.80;67.10;;;;;;5003380;28;20680;-70
2022/04/01 11:20:27;;;;;;;5.22;1.60;;;22.70;67.20;;;;;;5020980;28;20183;-73
2022/04/01 11:22:53;;;;;;;5.78;1.50;;;22.50;66.60;;;;;;5021994;28;20579;-67
2022/04/01 11:25:24;;;;;;;6.43;1.55;;;22.30;66.70;;;;;;5021124;28;20188;-69
2022/04/01 11:28:02;;;;;;;14.25;2.63;;;22.20;66.90;;;;;;5020057;28;20242;-67
2022/04/01 11:30:55;;;;;;;6.05;1.35;;;22.50;67.30;;;;;;5019551;28;20231;-63
2022/04/01 11:33:22;;;;;;;5.13;1.88;;;22.40;66.20;;;;;;4994474;28;20207;-65
2022/04/01 11:35:53;;;;;;;9.38;1.95;;;22.10;67.00;;;;;;5021097;28;20194;-69
2022/04/01 11:38:25;;;;;;;8.20;2.45;;;21.80;68.10;;;;;;5021126;28;20202;-68
2022/04/01 11:40:56;;;;;;;10.02;2.00;;;21.90;68.50;;;;;;5021802;28;20211;-67
2022/04/01 11:43:23;;;;;;;4.63;1.30;;;22.20;67.30;;;;;;5021271;28;20192;-70
2022/04/01 11:45:56;;;;;;;15.80;2.42;;;22.30;66.80;;;;;;5021400;28;20199;-70
2022/04/01 11:48:36;;;;;;;11.02;2.13;;;22.30;67.20;;;;;;5001736;28;20187;-71
2022/04/01 11:51:03;;;;;;;6.95;1.90;;;22.20;67.00;;;;;;5021591;28;20253;-69
2022/04/01 11:53:39;;;;;;;9.98;1.88;;;22.00;67.60;;;;;;5012408;28;20316;-69
2022/04/01 11:56:08;;;;;;;11.13;2.63;;;22.20;67.50;;;;;;5020168;28;20214;-65
2022/04/01 11:58:36;;;;;;;12.10;2.15;;;22.80;66.80;;;;;;5020888;28;20238;-69
2022/04/01 12:01:03;;;;;;;13.88;2.65;;;23.20;66.10;;;;;;5021320;28;20214;-71
2022/04/01 12:03:30;;;;;;;8.63;2.38;;;23.20;65.10;;;;;;5020713;28;20186;-70
2022/04/01 12:08:41;;;;;;;9.40;2.40;;;23.30;65.00;;;;;;4986809;28;20197;-71
2022/04/01 12:08:43;;;;;;;13.77;3.65;;;23.10;64.60;;;;;;5019190;28;20183;-72
2022/04/01 12:11:09;;;;;;;26.55;3.45;;;23.10;65.00;;;;;;5019771;28;20187;-69
2022/04/01 12:13:40;;;;;;;11.18;2.97;;;23.10;64.90;;;;;;5019962;28;20204;-70
2022/04/01 12:16:06;;;;;;;9.20;3.60;;;23.40;64.50;;;;;;5019220;28;20223;-69
2022/04/01 12:18:32;;;;;;;9.85;2.35;;;24.10;63.60;;;;;;5019948;28;20239;-71
2022/04/01 12:21:01;;;;;;;7.15;2.40;;;23.80;62.50;;;;;;5020375;28;20194;-70
2022/04/01 12:23:30;;;;;;;18.02;2.42;;;24.00;62.60;;;;;;4986472;28;20206;-70
2022/04/01 12:25:57;;;;;;;35.20;4.82;;;24.30;61.80;;;;;;5019761;28;20547;-72
2022/04/01 12:28:39;;;;;;;15.25;3.17;;;24.80;60.90;;;;;;5002149;28;20191;-71
2022/04/01 12:31:15;;;;;;;9.23;2.40;;;25.00;60.20;;;;;;5020972;28;20185;-70
2022/04/01 12:33:46;;;;;;;18.58;3.50;;;25.10;60.10;;;;;;5020092;28;20209;-70
2022/04/01 12:36:12;;;;;;;14.35;2.95;;;24.90;60.00;;;;;;5019420;28;20631;-69
2022/04/01 12:38:40;;;;;;;9.38;2.50;;;24.60;59.90;;;;;;5029592;28;20198;-71
2022/04/01 12:41:14;;;;;;;14.60;2.90;;;24.30;60.50;;;;;;5029573;28;20178;-65
2022/04/01 12:43:45;;;;;;;10.00;2.55;;;24.00;61.30;;;;;;5030915;28;20233;-69
2022/04/01 12:46:19;;;;;;;5.32;1.65;;;23.30;61.90;;;;;;5029474;28;20631;-71
2022/04/01 12:48:54;;;;;;;9.60;2.47;;;23.10;62.50;;;;;;5030365;28;20212;-69
2022/04/01 12:51:24;;;;;;;8.77;2.15;;;22.90;63.70;;;;;;5030554;28;20199;-70
2022/04/01 12:54:11;;;;;;;9.13;1.70;;;22.60;63.90;;;;;;5030637;28;20213;-70